Terminal Aerodrome Forecast
Issued by NWS Melbourne, FL

Home | Current Version | Previous Version | Text Only | Print | Product List | Glossary On
Versions: 1 2 3 4 5 6 7 8 9 10 11 12 13 14 15 16 17 18 19 20 21 22 23 24 25 26 27 28 29 30 31 32 33 34 35 36 37 38 39 40 41 42 43 44 45 46 47 48 49 50
000
FTUS42 KMLB 291729
TAFMCO
TAF
KMCO 291729Z 2918/3024 15008KT P6SM VCTS SCT040CB SCT070 SCT250
      TEMPO 2919/2922 VRB20G30KT 2SM +TSRA BKN030CB OVC070
     FM300100 VRB05KT P6SM VCSH SCT030 BKN050
     FM300400 18003KT P6SM FEW040 SCT250
     FM301400 22006KT P6SM SCT025
     FM301800 25008KT P6SM VCTS SCT040CB SCT070
      TEMPO 3019/3022 2SM TSRA BKN030CB=

USA.gov is the U.S. government's official web portal to all federal, state and local government web resources and services.